Main page
METAR-TAF:

METAR-TAF

Airports :

Benbecula Airport

Benbecula, Scotland

latitude: 57-28N, longitude: 007-22W, elevation: 6 m

Current weather observation

The report was made 35 minutes ago, at 03:20 UTC
Wind 4 kt from the East/Southeast
Temperature 4°C
Humidity 100%
Pressure 994 hPa
Visibility 10 km or more

METAR: EGPL 240320Z AUTO 12004KT 9999 NCD 04/04 Q0994

Time: 04:55 (03:55 UTC)

Forecast

The report was made 2 hours and 0 minutes ago, at 01:55 UTC
Forecast valid from 24 at 03 UTC to 24 at 12 UTC
Wind 4 kt from the East/Northeast
Visibility 10 km or more
Few clouds at a height of 3500 ft

TAF: EGPL 240155Z 2403/2412 06004KT 9999 FEW035

Weather observations and forecasts of more than 4000 airports (METAR and TAF reports).

The available stations are represented by yellow and red dots on the map.

Hover mouse over dot to see the name of the station.

Then click to see weather observations and forecasts.

To change the map : click on the green buttons with a black cross to zoom in, on the green button with a dash to zoom out, or on the green arrows for adjacent maps.


METAR-TAF: